KMKE

General Mitchell International Airport

Milwaukee, Wisconsin, USA
METAR KMKE 232252Z 33008KT 10SM OVC024 M01/M05 A3001 RMK AO2 SLP172 T10111050 $
Observed Flight Rules
Jan-23 @ 22:52 UTC (49 minutes ago) Marginal Visual Flight Rules
Wind Visibility Clouds
330° at 8 knots 10 miles
  • Overcast at 2,400' AGL
Temperatures Readings
Current -1°C / 30°F
Dewpoint -5°C / 23°F
Humidity 75%
Altimeter 30.01" Hg
Pressure 1017.2 hPa
Elevation 206
METAR KMKE 232252Z 33008KT 10SM OVC024 M01/M05 A3001 RMK AO2 SLP172 T10111050 $
Observed Flight Rules
Jan-23 @ 22:52 UTC
(49 minutes ago)
MVFR
Wind Visibility
330° at 8 knots 10 miles
Clouds
  • Overcast at 2,400' AGL
Temperature Dewpoint
-1°C / 30°F -5°C / 23°F
Humidity Altimeter Pressure
75% 30.01" Hg 1017.2 hPa